Time;durP1;ratioP1;P1;durP2;ratioP2;P2;SDS_P1;SDS_P2;PMS_P1;PMS_P2;Temp;Humidity;BMP_temperature;BMP_pressure;BME280_temperature;BME280_humidity;BME280_pressure;Samples;Min_cycle;Max_cycle;Signal;HPM_P1;HPM_P2
2023/11/26 00:00:58;;;;;;;0.30;0.20;;;1.80;99.90;;;;;;5079181;28;20434;-83
2023/11/26 00:03:25;;;;;;;0.30;0.20;;;1.80;99.90;;;;;;5078707;28;20446;-82
2023/11/26 00:05:53;;;;;;;0.87;0.47;;;1.80;99.90;;;;;;5078733;28;20430;-84
2023/11/26 00:08:20;;;;;;;0.30;0.20;;;1.90;99.90;;;;;;5078571;28;20466;-80
2023/11/26 00:10:47;;;;;;;0.30;0.20;;;1.90;99.90;;;;;;5079180;28;20445;-83
2023/11/26 00:13:13;;;;;;;0.30;0.27;;;2.00;99.90;;;;;;5078636;28;20477;-83
2023/11/26 00:15:40;;;;;;;0.50;0.50;;;2.00;99.90;;;;;;5079020;28;20445;-82
2023/11/26 00:18:07;;;;;;;0.30;0.30;;;2.00;99.90;;;;;;5079015;28;20480;-83
2023/11/26 00:20:34;;;;;;;0.30;0.30;;;2.00;99.90;;;;;;5079008;28;20501;-85
2023/11/26 00:23:02;;;;;;;0.30;0.30;;;2.00;99.90;;;;;;5078854;28;20430;-84
2023/11/26 00:25:29;;;;;;;0.40;0.40;;;2.10;99.90;;;;;;5078939;28;20422;-84
2023/11/26 00:27:56;;;;;;;0.30;0.30;;;2.00;99.90;;;;;;5078888;28;20437;-85
2023/11/26 00:30:22;;;;;;;0.30;0.30;;;2.00;99.90;;;;;;5078717;28;20469;-81
2023/11/26 00:32:49;;;;;;;0.73;0.73;;;2.00;99.90;;;;;;5078809;28;20458;-85
2023/11/26 00:35:16;;;;;;;1.83;0.60;;;2.00;99.90;;;;;;5078871;28;20472;-81
2023/11/26 00:37:42;;;;;;;0.40;0.40;;;2.10;99.90;;;;;;5078953;28;20438;-83
2023/11/26 00:40:12;;;;;;;0.70;0.70;;;2.10;99.90;;;;;;5078698;28;20434;-82
2023/11/26 00:42:38;;;;;;;0.40;0.40;;;2.10;99.90;;;;;;5078808;28;20433;-79
2023/11/26 00:45:06;;;;;;;0.47;0.37;;;2.20;99.90;;;;;;5078490;28;20450;-83
2023/11/26 00:47:33;;;;;;;2.00;0.50;;;2.10;99.90;;;;;;5078595;28;20458;-81
2023/11/26 00:50:02;;;;;;;0.40;0.30;;;2.20;99.90;;;;;;5079744;28;20458;-83
2023/11/26 00:52:31;;;;;;;1.37;0.57;;;2.20;99.90;;;;;;5081943;28;20529;-85
2023/11/26 00:54:58;;;;;;;0.30;0.30;;;2.20;99.90;;;;;;5081585;28;20481;-83
2023/11/26 00:57:27;;;;;;;0.80;0.60;;;2.20;99.90;;;;;;5081869;28;20995;-84
2023/11/26 00:59:54;;;;;;;0.50;0.30;;;2.20;99.90;;;;;;5081445;28;20466;-83
2023/11/26 01:02:22;;;;;;;1.33;0.40;;;2.20;99.90;;;;;;5081141;28;20442;-84
2023/11/26 01:04:50;;;;;;;0.30;0.30;;;2.20;99.90;;;;;;5081630;28;20450;-84
2023/11/26 01:07:17;;;;;;;0.50;0.50;;;2.30;99.90;;;;;;5081651;28;20433;-84
2023/11/26 01:09:44;;;;;;;0.60;0.40;;;2.30;99.90;;;;;;5080973;28;20473;-83
2023/11/26 01:12:11;;;;;;;1.00;0.53;;;2.30;99.90;;;;;;5080664;28;20445;-81
2023/11/26 01:14:39;;;;;;;0.30;0.30;;;2.30;99.90;;;;;;5081722;28;20473;-82
2023/11/26 01:17:05;;;;;;;1.23;0.50;;;2.30;99.90;;;;;;5081993;28;20823;-82
2023/11/26 01:19:32;;;;;;;0.50;0.50;;;2.30;99.90;;;;;;5081322;28;21021;-82
2023/11/26 01:21:59;;;;;;;0.53;0.53;;;2.30;99.90;;;;;;5081421;28;20476;-82
2023/11/26 01:24:26;;;;;;;0.30;0.30;;;2.30;99.90;;;;;;5081501;28;20453;-83
2023/11/26 01:26:52;;;;;;;0.37;0.33;;;2.30;99.90;;;;;;5081150;28;20454;-82
2023/11/26 01:29:19;;;;;;;2.60;0.50;;;2.30;99.90;;;;;;5083314;22;20482;-80
2023/11/26 01:31:47;;;;;;;0.40;0.40;;;2.30;99.90;;;;;;5036877;28;20446;-80
2023/11/26 01:34:15;;;;;;;0.30;0.30;;;2.20;99.90;;;;;;5036580;28;20478;-80
2023/11/26 01:36:41;;;;;;;0.40;0.30;;;2.20;99.90;;;;;;5037124;28;20462;-80
2023/11/26 01:39:09;;;;;;;0.30;0.30;;;2.10;99.90;;;;;;5036990;28;20462;-80
2023/11/26 01:41:36;;;;;;;0.43;0.40;;;2.10;99.90;;;;;;5037082;28;20481;-80
2023/11/26 01:44:02;;;;;;;0.30;0.30;;;2.00;99.90;;;;;;5037805;28;20452;-80
2023/11/26 01:46:30;;;;;;;0.30;0.30;;;1.90;99.90;;;;;;5040657;28;20445;-79
2023/11/26 01:48:59;;;;;;;0.80;0.37;;;1.80;99.90;;;;;;5038566;28;20532;-80
2023/11/26 01:51:29;;;;;;;0.30;0.20;;;1.80;99.90;;;;;;5038512;28;20443;-80
2023/11/26 01:53:57;;;;;;;0.60;0.33;;;1.70;99.90;;;;;;5039193;28;20470;-80
2023/11/26 01:56:25;;;;;;;1.07;0.40;;;1.70;99.90;;;;;;5040062;28;20451;-80
2023/11/26 01:58:52;;;;;;;0.40;0.30;;;1.50;99.90;;;;;;5039089;28;20465;-80
2023/11/26 02:01:22;;;;;;;0.77;0.40;;;1.60;99.90;;;;;;5039501;28;20862;-80
2023/11/26 02:03:49;;;;;;;0.30;0.20;;;;;;;;;;5040758;28;20428;-80
2023/11/26 02:06:18;;;;;;;0.30;0.30;;;1.70;99.90;;;;;;5040883;28;20442;-80
2023/11/26 02:08:46;;;;;;;0.40;0.40;;;1.70;99.90;;;;;;5040740;28;20451;-80
2023/11/26 02:11:13;;;;;;;0.67;0.40;;;;;;;;;;5040050;28;20431;-79
2023/11/26 02:13:46;;;;;;;0.33;0.27;;;1.70;99.90;;;;;;5042323;28;20455;-79
2023/11/26 02:16:14;;;;;;;0.30;0.20;;;3.30;99.90;;;;;;5039335;28;20966;-79
2023/11/26 02:18:41;;;;;;;0.30;0.20;;;1.60;99.90;;;;;;5040160;28;20474;-79
2023/11/26 02:21:09;;;;;;;0.30;0.30;;;;;;;;;;5040268;28;20455;-79
2023/11/26 02:23:38;;;;;;;0.37;0.30;;;1.50;99.90;;;;;;5039254;28;20469;-79
2023/11/26 02:26:09;;;;;;;0.40;0.30;;;1.30;99.90;;;;;;5038537;28;20437;-79
2023/11/26 02:28:35;;;;;;;0.30;0.30;;;1.60;99.90;;;;;;5037933;28;20482;-79
2023/11/26 02:31:02;;;;;;;0.30;0.20;;;;;;;;;;5037927;28;20938;-79
2023/11/26 02:33:30;;;;;;;0.40;0.30;;;1.40;99.90;;;;;;5036918;28;20443;-79
2023/11/26 02:35:57;;;;;;;0.30;0.20;;;1.30;99.90;;;;;;5037017;28;20446;-79
2023/11/26 02:38:24;;;;;;;0.40;0.40;;;;;;;;;;5037038;28;20447;-79
2023/11/26 02:40:51;;;;;;;1.50;0.30;;;;;;;;;;5036341;28;20459;-79
2023/11/26 02:43:19;;;;;;;0.30;0.30;;;1.20;99.90;;;;;;5036742;28;20451;-79
2023/11/26 02:45:47;;;;;;;0.30;0.30;;;1.00;99.90;;;;;;5036309;28;20435;-79
2023/11/26 02:48:15;;;;;;;0.30;0.30;;;;;;;;;;5036078;28;20535;-79
2023/11/26 02:50:42;;;;;;;0.30;0.30;;;;;;;;;;5035339;28;20450;-79
2023/11/26 02:53:09;;;;;;;0.30;0.30;;;1.20;99.90;;;;;;5035786;28;20454;-79
2023/11/26 02:55:36;;;;;;;0.37;0.27;;;;;;;;;;5035471;28;20577;-79
2023/11/26 02:58:05;;;;;;;0.40;0.30;;;1.20;99.90;;;;;;5035248;28;20442;-79
2023/11/26 03:00:36;;;;;;;0.70;0.30;;;2.80;99.90;;;;;;5035202;28;20450;-78
2023/11/26 03:03:03;;;;;;;0.40;0.30;;;1.10;99.90;;;;;;5035377;28;20518;-78
2023/11/26 03:05:30;;;;;;;0.33;0.27;;;;;;;;;;5034756;28;20454;-78
2023/11/26 03:08:08;;;;;;;0.40;0.33;;;1.10;99.90;;;;;;5034798;28;20970;-79
2023/11/26 03:13:21;;;;;;;0.90;0.30;;;1.00;99.90;;;;;;5034031;28;20489;-79
2023/11/26 03:15:49;;;;;;;0.30;0.30;;;1.00;99.90;;;;;;5034800;28;20482;-79
2023/11/26 03:18:17;;;;;;;0.80;0.30;;;1.00;99.90;;;;;;5034727;28;20443;-80
2023/11/26 03:20:45;;;;;;;0.30;0.27;;;1.00;99.90;;;;;;5034786;28;20443;-80
2023/11/26 03:23:13;;;;;;;0.30;0.30;;;3.60;99.90;;;;;;5034682;28;20443;-80
2023/11/26 03:25:40;;;;;;;0.50;0.50;;;;;;;;;;5034223;28;20538;-79
2023/11/26 03:28:08;;;;;;;0.30;0.20;;;;;;;;;;5034408;28;20435;-79
2023/11/26 03:30:35;;;;;;;0.83;0.40;;;;;;;;;;5034604;28;20506;-79
2023/11/26 03:33:04;;;;;;;0.33;0.33;;;1.00;99.90;;;;;;5034310;28;20454;-79
2023/11/26 03:35:31;;;;;;;0.30;0.30;;;;;;;;;;5034490;28;20474;-79
2023/11/26 03:37:58;;;;;;;0.30;0.30;;;1.00;99.90;;;;;;5034134;28;20443;-79
2023/11/26 03:40:25;;;;;;;0.40;0.37;;;;;;;;;;5034391;28;20975;-79
2023/11/26 03:42:53;;;;;;;2.57;0.40;;;;;;;;;;5034119;28;20435;-79
2023/11/26 03:45:22;;;;;;;0.30;0.30;;;1.00;99.90;;;;;;5034045;28;20446;-79
2023/11/26 03:47:49;;;;;;;1.37;0.67;;;1.00;99.90;;;;;;5034384;28;20408;-79
2023/11/26 03:50:19;;;;;;;0.30;0.30;;;1.10;99.90;;;;;;5034094;28;20497;-79
2023/11/26 03:52:46;;;;;;;0.30;0.30;;;0.80;99.90;;;;;;5034001;28;20451;-79
2023/11/26 03:55:14;;;;;;;0.30;0.30;;;-0.70;99.90;;;;;;5034049;28;20490;-79
2023/11/26 03:57:43;;;;;;;0.30;0.30;;;3.10;99.90;;;;;;5034483;28;20439;-79
2023/11/26 04:00:12;;;;;;;0.30;0.30;;;0.80;99.90;;;;;;5035190;28;20509;-79
2023/11/26 04:02:39;;;;;;;0.30;0.30;;;;;;;;;;5034349;28;20534;-79
2023/11/26 04:05:09;;;;;;;0.30;0.20;;;1.00;99.90;;;;;;5034234;28;20812;-80
2023/11/26 04:07:37;;;;;;;0.37;0.30;;;1.00;99.90;;;;;;5034051;28;20832;-79
2023/11/26 04:10:04;;;;;;;0.30;0.20;;;2.90;99.90;;;;;;5034048;28;20492;-80
2023/11/26 04:12:31;;;;;;;0.30;0.30;;;1.10;99.90;;;;;;5033863;28;20435;-79
2023/11/26 04:15:02;;;;;;;0.30;0.30;;;3.10;99.90;;;;;;5033848;28;20485;-79
2023/11/26 04:17:28;;;;;;;0.40;0.40;;;1.10;99.90;;;;;;5034120;28;20438;-79
2023/11/26 04:19:56;;;;;;;0.30;0.30;;;;;;;;;;5033678;28;20455;-79
2023/11/26 04:22:25;;;;;;;0.50;0.30;;;2.10;99.90;;;;;;5034201;28;20434;-79
2023/11/26 04:24:53;;;;;;;0.30;0.30;;;1.30;99.90;;;;;;5033321;28;20474;-79
2023/11/26 04:27:21;;;;;;;0.30;0.30;;;1.60;99.90;;;;;;5033879;28;20449;-80
2023/11/26 04:29:48;;;;;;;0.30;0.30;;;;;;;;;;5033333;28;20561;-80
2023/11/26 04:32:16;;;;;;;0.40;0.40;;;1.60;99.90;;;;;;5033726;28;20810;-80
2023/11/26 04:34:42;;;;;;;0.40;0.40;;;1.60;99.90;;;;;;5033448;28;20998;-80
2023/11/26 04:37:11;;;;;;;0.47;0.47;;;1.50;99.90;;;;;;5033534;28;20435;-80
2023/11/26 04:39:39;;;;;;;0.30;0.30;;;1.60;99.90;;;;;;5033936;28;20462;-80
2023/11/26 04:42:08;;;;;;;0.30;0.30;;;1.70;99.90;;;;;;5033632;28;20819;-78
2023/11/26 04:44:35;;;;;;;0.40;0.40;;;1.80;99.90;;;;;;5033291;28;20447;-78
2023/11/26 04:47:02;;;;;;;0.30;0.30;;;1.90;99.90;;;;;;5033234;28;20430;-79
2023/11/26 04:49:29;;;;;;;0.97;0.37;;;;;;;;;;5033545;28;20833;-80
2023/11/26 04:51:56;;;;;;;6.03;0.40;;;1.80;99.90;;;;;;5033442;28;20454;-80
2023/11/26 04:54:26;;;;;;;0.30;0.30;;;;;;;;;;5035143;28;20436;-79
2023/11/26 04:56:53;;;;;;;0.40;0.40;;;;;;;;;;5043281;28;20435;-79
2023/11/26 04:59:21;;;;;;;0.30;0.30;;;1.90;99.90;;;;;;5046877;28;20470;-79
2023/11/26 05:01:54;;;;;;;0.30;0.30;;;;;;;;;;5051452;28;20423;-78
2023/11/26 05:04:21;;;;;;;0.40;0.30;;;2.00;99.90;;;;;;5051858;28;20437;-79
2023/11/26 05:06:48;;;;;;;0.30;0.27;;;;;;;;;;5047244;28;20443;-78
2023/11/26 05:09:16;;;;;;;0.53;0.53;;;2.00;99.90;;;;;;5046216;28;20463;-78
2023/11/26 05:11:43;;;;;;;0.30;0.30;;;1.70;99.90;;;;;;5039325;28;20485;-79
2023/11/26 05:14:10;;;;;;;0.40;0.40;;;3.80;99.90;;;;;;5033329;28;20463;-79
2023/11/26 05:16:38;;;;;;;3.17;0.43;;;2.00;99.90;;;;;;5033657;28;20486;-79
2023/11/26 05:19:05;;;;;;;0.40;0.40;;;2.30;99.90;;;;;;5033534;28;20476;-79
2023/11/26 05:21:32;;;;;;;0.30;0.30;;;1.60;99.90;;;;;;5035499;28;20514;-79
2023/11/26 05:23:59;;;;;;;0.47;0.33;;;3.70;99.90;;;;;;5041585;28;20465;-79
2023/11/26 05:26:27;;;;;;;0.30;0.30;;;3.00;99.90;;;;;;5034636;28;20453;-79
2023/11/26 05:28:54;;;;;;;0.50;0.30;;;;;;;;;;5032853;28;20482;-78
2023/11/26 05:31:21;;;;;;;0.30;0.30;;;2.10;99.90;;;;;;5033071;28;20817;-78
2023/11/26 05:33:51;;;;;;;0.80;0.40;;;1.80;99.90;;;;;;5033193;28;20462;-79
2023/11/26 05:36:18;;;;;;;0.40;0.30;;;1.90;99.90;;;;;;5033009;28;20919;-79
2023/11/26 05:38:46;;;;;;;0.30;0.30;;;2.70;99.90;;;;;;5036483;28;20468;-79
2023/11/26 05:41:13;;;;;;;0.93;0.30;;;1.90;99.90;;;;;;5036685;28;20537;-79
2023/11/26 05:43:40;;;;;;;0.30;0.20;;;2.10;99.90;;;;;;5036733;28;20462;-79
2023/11/26 05:46:07;;;;;;;0.30;0.30;;;1.70;99.90;;;;;;5036636;28;20451;-79
2023/11/26 05:48:34;;;;;;;0.30;0.30;;;2.10;99.90;;;;;;5036485;28;20517;-79
2023/11/26 05:51:02;;;;;;;0.40;0.30;;;2.10;99.90;;;;;;5036521;28;20545;-79
2023/11/26 05:53:30;;;;;;;0.33;0.33;;;;;;;;;;5036804;28;20497;-79
2023/11/26 05:55:56;;;;;;;0.30;0.20;;;2.10;99.90;;;;;;5036302;28;20557;-79
2023/11/26 05:58:23;;;;;;;0.30;0.30;;;2.20;99.90;;;;;;5036366;28;20432;-79
2023/11/26 06:00:50;;;;;;;0.50;0.30;;;2.00;99.90;;;;;;5036112;28;20806;-79
2023/11/26 06:03:17;;;;;;;0.30;0.30;;;2.00;99.90;;;;;;5036143;28;20451;-79
2023/11/26 06:05:43;;;;;;;0.30;0.20;;;1.90;99.90;;;;;;5035832;28;20525;-79
2023/11/26 06:08:12;;;;;;;0.30;0.30;;;1.10;99.90;;;;;;5036101;28;20455;-79
2023/11/26 06:10:39;;;;;;;0.30;0.30;;;2.10;99.90;;;;;;5036168;28;20497;-79
2023/11/26 06:13:06;;;;;;;0.40;0.40;;;2.00;99.90;;;;;;5036386;28;20447;-79
2023/11/26 06:15:33;;;;;;;0.50;0.50;;;2.00;99.90;;;;;;5037417;28;20470;-79
2023/11/26 06:17:59;;;;;;;0.50;0.40;;;4.20;99.90;;;;;;5036459;28;20826;-79
2023/11/26 06:20:26;;;;;;;0.30;0.20;;;2.10;99.90;;;;;;5035828;28;20834;-79
2023/11/26 06:22:53;;;;;;;0.30;0.20;;;2.20;99.90;;;;;;5035902;28;20486;-80
2023/11/26 06:25:21;;;;;;;0.60;0.40;;;2.20;99.90;;;;;;5035588;28;20442;-80
2023/11/26 06:27:48;;;;;;;0.30;0.30;;;2.30;99.90;;;;;;5035548;28;20446;-80
2023/11/26 06:30:15;;;;;;;0.30;0.20;;;2.20;99.90;;;;;;5035244;28;20983;-80
2023/11/26 06:32:42;;;;;;;0.40;0.30;;;2.30;99.90;;;;;;5035753;28;20454;-80
2023/11/26 06:35:08;;;;;;;0.30;0.30;;;2.20;99.90;;;;;;5035625;28;20482;-80
2023/11/26 06:37:36;;;;;;;0.47;0.47;;;2.30;99.90;;;;;;5036690;28;20458;-80
2023/11/26 06:40:05;;;;;;;0.40;0.30;;;3.40;99.90;;;;;;5035219;28;20471;-79
2023/11/26 06:42:33;;;;;;;0.30;0.30;;;2.30;99.90;;;;;;5035357;28;20486;-80
2023/11/26 06:45:00;;;;;;;0.30;0.20;;;2.30;99.90;;;;;;5035554;28;20845;-80
2023/11/26 06:47:28;;;;;;;0.30;0.20;;;3.10;99.90;;;;;;5035312;28;20451;-80
2023/11/26 06:49:55;;;;;;;1.53;0.33;;;2.20;99.90;;;;;;5035107;28;20451;-80
2023/11/26 06:52:21;;;;;;;0.40;0.40;;;2.20;99.90;;;;;;5035243;28;20522;-80
2023/11/26 06:54:48;;;;;;;0.30;0.20;;;;;;;;;;5035043;28;20442;-80
2023/11/26 06:57:15;;;;;;;0.30;0.30;;;2.30;99.90;;;;;;5035181;28;20482;-80
2023/11/26 06:59:43;;;;;;;0.40;0.30;;;3.30;99.90;;;;;;5034947;28;20983;-80
2023/11/26 07:02:10;;;;;;;0.33;0.33;;;2.10;99.90;;;;;;5035064;28;20450;-80
2023/11/26 07:04:38;;;;;;;0.30;0.27;;;2.20;99.90;;;;;;5035159;28;20451;-80
2023/11/26 07:07:05;;;;;;;0.60;0.50;;;2.20;99.90;;;;;;5034878;28;20451;-80
2023/11/26 07:09:32;;;;;;;0.30;0.30;;;3.90;99.90;;;;;;5034653;28;21026;-80
2023/11/26 07:11:59;;;;;;;0.30;0.20;;;2.30;99.90;;;;;;5034983;28;20537;-80
2023/11/26 07:14:25;;;;;;;0.87;0.87;;;2.30;99.90;;;;;;5035010;28;20519;-80
2023/11/26 07:16:54;;;;;;;0.30;0.20;;;4.30;99.90;;;;;;5034771;28;20514;-80
2023/11/26 07:19:21;;;;;;;0.43;0.43;;;2.30;99.90;;;;;;5034860;28;20467;-80
2023/11/26 07:21:48;;;;;;;0.30;0.30;;;3.60;99.90;;;;;;5034814;28;20466;-80
2023/11/26 07:24:15;;;;;;;0.30;0.30;;;2.30;99.90;;;;;;5034689;28;20466;-80
2023/11/26 07:26:42;;;;;;;0.30;0.30;;;2.20;99.90;;;;;;5035064;28;20701;-80
2023/11/26 07:29:08;;;;;;;0.30;0.30;;;2.20;99.90;;;;;;5036582;28;20505;-81
2023/11/26 07:31:35;;;;;;;0.40;0.40;;;;;;;;;;5036700;28;20455;-80
2023/11/26 08:54:44;;;;;;;0.40;0.30;;;2.70;99.90;;;;;;5017371;28;20491;-80
2023/11/26 08:57:10;;;;;;;1.03;0.70;;;3.20;99.90;;;;;;5016219;28;20479;-81
2023/11/26 08:59:37;;;;;;;1.13;0.60;;;3.40;99.90;;;;;;5016145;28;20440;-82
2023/11/26 09:02:05;;;;;;;1.00;0.50;;;4.20;99.90;;;;;;5016645;28;20451;-83
2023/11/26 09:04:31;;;;;;;0.43;0.40;;;5.10;99.90;;;;;;5017542;28;21003;-82
2023/11/26 09:06:58;;;;;;;0.40;0.40;;;6.40;99.90;;;;;;5017007;28;20454;-85
2023/11/26 09:09:27;;;;;;;0.60;0.57;;;7.60;99.90;;;;;;5014643;28;20963;-83
2023/11/26 09:11:55;;;;;;;0.70;0.70;;;8.70;99.90;;;;;;5015086;28;20567;-83
2023/11/26 09:14:21;;;;;;;1.00;0.57;;;9.30;99.90;;;;;;5018167;28;20455;-84
2023/11/26 09:16:49;;;;;;;0.67;0.60;;;9.30;99.90;;;;;;5018292;28;20487;-83
2023/11/26 09:19:16;;;;;;;0.80;0.70;;;9.20;99.90;;;;;;5017873;28;20509;-83
2023/11/26 09:21:48;;;;;;;0.80;0.70;;;9.20;99.90;;;;;;5017896;28;21013;-84
2023/11/26 09:24:15;;;;;;;5.13;0.93;;;9.20;99.90;;;;;;5018061;28;20482;-83
2023/11/26 09:26:43;;;;;;;0.70;0.70;;;9.40;99.90;;;;;;5018067;28;20502;-83
2023/11/26 09:29:11;;;;;;;7.03;0.90;;;9.40;99.90;;;;;;5018123;28;20459;-83
2023/11/26 09:31:42;;;;;;;1.90;0.97;;;9.40;99.90;;;;;;5017951;28;20802;-83
2023/11/26 09:34:09;;;;;;;0.50;0.50;;;9.40;99.90;;;;;;5018041;28;20490;-83
2023/11/26 09:36:35;;;;;;;0.87;0.80;;;9.60;99.90;;;;;;5017669;28;20490;-83
2023/11/26 09:39:02;;;;;;;3.40;0.97;;;9.50;99.90;;;;;;5017583;28;20787;-83
2023/11/26 09:41:30;;;;;;;1.27;1.17;;;9.80;99.90;;;;;;5017568;28;20439;-83
2023/11/26 09:43:56;;;;;;;0.70;0.53;;;10.10;99.90;;;;;;5019122;28;20463;-83
2023/11/26 09:46:26;;;;;;;0.97;0.70;;;10.70;99.90;;;;;;5019801;28;20435;-83
2023/11/26 09:48:53;;;;;;;5.33;1.10;;;11.50;99.90;;;;;;5018783;28;20447;-83
2023/11/26 09:51:23;;;;;;;1.00;0.70;;;12.20;99.90;;;;;;5018312;28;20447;-83
2023/11/26 09:53:51;;;;;;;1.73;1.07;;;12.60;99.90;;;;;;5018079;28;20482;-83
2023/11/26 09:56:18;;;;;;;0.77;0.70;;;12.90;99.90;;;;;;5018878;28;20487;-83
2023/11/26 09:58:45;;;;;;;0.83;0.60;;;12.90;99.90;;;;;;5018712;28;20447;-80
2023/11/26 10:01:11;;;;;;;2.27;0.63;;;12.50;99.90;;;;;;5018140;28;20447;-80
2023/11/26 10:03:59;;;;;;;1.27;0.60;;;11.80;99.90;;;;;;5019964;28;20459;-81
2023/11/26 10:06:26;;;;;;;0.60;0.60;;;10.80;99.90;;;;;;5021490;28;20825;-81
2023/11/26 10:08:53;;;;;;;2.40;0.57;;;10.20;99.90;;;;;;5018844;28;20839;-82
2023/11/26 10:11:21;;;;;;;1.37;0.90;;;9.70;99.90;;;;;;5017198;28;20967;-82
2023/11/26 10:13:48;;;;;;;1.17;0.73;;;9.20;99.90;;;;;;5018554;28;20463;-82
2023/11/26 10:16:28;;;;;;;1.50;0.53;;;8.60;99.90;;;;;;5018428;28;20525;-83
2023/11/26 10:18:55;;;;;;;1.10;0.93;;;8.10;99.90;;;;;;5018361;28;20436;-83
2023/11/26 10:21:25;;;;;;;4.57;0.80;;;7.60;99.90;;;;;;5020147;28;20428;-83
2023/11/26 10:23:51;;;;;;;1.03;0.70;;;7.20;99.90;;;;;;5019099;28;20471;-84
2023/11/26 10:26:20;;;;;;;1.03;0.93;;;6.90;99.90;;;;;;5017352;28;20447;-85
2023/11/26 10:28:59;;;;;;;1.27;0.70;;;6.80;99.90;;;;;;5017351;28;20452;-84
2023/11/26 10:31:26;;;;;;;0.40;0.40;;;6.80;99.90;;;;;;5022457;28;20482;-85
2023/11/26 10:33:53;;;;;;;1.37;0.60;;;6.80;99.90;;;;;;5035126;28;20463;-84
2023/11/26 10:36:32;;;;;;;0.93;0.70;;;6.80;99.90;;;;;;5016128;28;20484;-85
2023/11/26 10:39:04;;;;;;;0.60;0.60;;;6.80;99.90;;;;;;5016533;28;20450;-84
2023/11/26 10:41:34;;;;;;;0.77;0.77;;;6.90;99.90;;;;;;5016308;28;20440;-85
2023/11/26 10:44:01;;;;;;;0.47;0.47;;;6.80;99.90;;;;;;5016160;28;20468;-84
2023/11/26 10:46:32;;;;;;;0.50;0.50;;;6.80;99.90;;;;;;5019965;28;20427;-83
2023/11/26 10:49:03;;;;;;;0.40;0.40;;;6.60;99.90;;;;;;5020043;28;20436;-84
2023/11/26 10:51:35;;;;;;;1.70;0.83;;;6.50;99.90;;;;;;5018263;28;20443;-84
2023/11/26 10:54:05;;;;;;;0.40;0.40;;;6.40;99.90;;;;;;5017877;28;20983;-84
2023/11/26 10:56:38;;;;;;;0.60;0.60;;;6.30;99.90;;;;;;5018257;28;20530;-84
2023/11/26 10:59:08;;;;;;;4.37;0.63;;;6.20;99.90;;;;;;5017935;28;20440;-84
2023/11/26 11:01:36;;;;;;;0.93;0.80;;;6.20;99.90;;;;;;5017511;28;20536;-84
2023/11/26 11:04:04;;;;;;;2.30;1.10;;;6.40;99.90;;;;;;5017570;28;20466;-84
2023/11/26 11:06:33;;;;;;;1.30;1.20;;;6.50;99.90;;;;;;5017565;28;20452;-84
2023/11/26 11:09:00;;;;;;;1.10;0.80;;;6.70;99.90;;;;;;5017640;28;20798;-84
2023/11/26 11:11:35;;;;;;;0.67;0.53;;;6.80;99.90;;;;;;5017439;28;20439;-84
2023/11/26 11:14:03;;;;;;;1.00;1.00;;;6.80;99.90;;;;;;5017463;28;20455;-83
2023/11/26 11:16:30;;;;;;;0.90;0.50;;;6.70;99.90;;;;;;5017286;28;20847;-84
2023/11/26 11:18:57;;;;;;;5.80;0.73;;;6.70;99.90;;;;;;5017935;28;20447;-84
2023/11/26 11:21:24;;;;;;;1.33;0.73;;;6.60;99.90;;;;;;5018364;28;20440;-84
2023/11/26 11:23:55;;;;;;;0.63;0.57;;;6.50;99.90;;;;;;5019511;28;20980;-84
2023/11/26 11:26:23;;;;;;;2.30;1.30;;;6.50;99.90;;;;;;5017075;28;20435;-84
2023/11/26 11:28:53;;;;;;;0.77;0.50;;;6.50;99.90;;;;;;5017277;28;20455;-85
2023/11/26 11:31:21;;;;;;;0.83;0.43;;;6.40;99.90;;;;;;5018606;28;20526;-84
2023/11/26 11:34:19;;;;;;;2.30;0.70;;;6.50;99.90;;;;;;5017073;28;20456;-84
2023/11/26 11:36:54;;;;;;;0.50;0.40;;;6.50;99.90;;;;;;5016750;28;20494;-84
2023/11/26 11:39:25;;;;;;;0.30;0.30;;;6.60;99.90;;;;;;5016710;28;20475;-85
2023/11/26 11:42:13;;;;;;;0.40;0.30;;;6.50;99.90;;;;;;5016799;28;20507;-84
2023/11/26 11:44:41;;;;;;;1.67;0.50;;;6.60;99.90;;;;;;5016314;28;20562;-85
2023/11/26 11:47:09;;;;;;;0.40;0.40;;;6.80;99.90;;;;;;5015723;28;20546;-84
2023/11/26 11:50:06;;;;;;;0.40;0.40;;;6.70;99.90;;;;;;5015723;28;20436;-85
2023/11/26 11:52:33;;;;;;;0.50;0.40;;;6.70;99.90;;;;;;5016267;28;20455;-85
2023/11/26 11:55:29;;;;;;;3.93;0.60;;;6.60;99.90;;;;;;5015712;28;21010;-85
2023/11/26 11:57:57;;;;;;;0.73;0.60;;;6.70;99.90;;;;;;5016337;28;20813;-85
2023/11/26 12:00:23;;;;;;;0.87;0.47;;;6.60;99.90;;;;;;5016273;28;20451;-85
2023/11/26 12:02:52;;;;;;;0.53;0.53;;;6.60;99.90;;;;;;5016972;28;20810;-85
2023/11/26 12:05:24;;;;;;;0.63;0.63;;;6.50;99.90;;;;;;5016961;28;20451;-85
2023/11/26 12:07:52;;;;;;;0.40;0.30;;;6.40;99.90;;;;;;5017059;28;20447;-84
2023/11/26 12:10:24;;;;;;;0.80;0.50;;;6.40;99.90;;;;;;5017553;28;20474;-84
2023/11/26 12:13:09;;;;;;;0.40;0.40;;;6.40;99.90;;;;;;5017310;28;20515;-84
2023/11/26 12:15:39;;;;;;;0.70;0.70;;;6.40;99.90;;;;;;5017099;28;20415;-84
2023/11/26 12:18:06;;;;;;;0.80;0.50;;;6.30;99.90;;;;;;5017304;28;20479;-84
2023/11/26 12:20:33;;;;;;;0.50;0.50;;;6.40;99.90;;;;;;5017820;28;20451;-84
2023/11/26 12:22:59;;;;;;;0.40;0.40;;;6.40;99.90;;;;;;5017123;28;20444;-84
2023/11/26 12:25:28;;;;;;;0.50;0.50;;;6.40;99.90;;;;;;5017386;28;20450;-84
2023/11/26 12:28:05;;;;;;;0.50;0.50;;;6.50;99.90;;;;;;5016955;28;20987;-84
2023/11/26 12:30:33;;;;;;;0.30;0.30;;;6.40;99.90;;;;;;5017916;28;20963;-84
2023/11/26 12:33:01;;;;;;;0.40;0.30;;;6.40;99.90;;;;;;5017074;28;20436;-84
2023/11/26 12:35:30;;;;;;;2.10;0.50;;;6.50;99.90;;;;;;5016794;28;20452;-85
2023/11/26 12:37:59;;;;;;;0.60;0.47;;;6.50;99.90;;;;;;5015940;28;20475;-85
2023/11/26 12:40:28;;;;;;;0.60;0.40;;;6.50;99.90;;;;;;5017001;28;20526;-84
2023/11/26 12:42:55;;;;;;;0.60;0.53;;;6.40;99.90;;;;;;5025715;28;20435;-85
2023/11/26 12:45:22;;;;;;;0.40;0.40;;;6.40;99.90;;;;;;5028760;28;20779;-83
2023/11/26 12:47:50;;;;;;;0.80;0.33;;;6.30;99.90;;;;;;5020595;28;20444;-83
2023/11/26 12:50:17;;;;;;;0.53;0.50;;;6.30;99.90;;;;;;5021191;28;20440;-83
2023/11/26 12:52:44;;;;;;;0.40;0.40;;;6.30;99.90;;;;;;5020883;28;20483;-84
2023/11/26 12:55:11;;;;;;;0.83;0.50;;;6.30;99.90;;;;;;5021259;28;20486;-85
2023/11/26 12:57:40;;;;;;;1.00;0.77;;;6.30;99.90;;;;;;5020203;28;20493;-83
2023/11/26 13:00:10;;;;;;;0.30;0.30;;;6.30;99.90;;;;;;5021115;28;20428;-85
2023/11/26 13:02:37;;;;;;;0.43;0.30;;;6.30;99.90;;;;;;5021629;28;20478;-84
2023/11/26 13:05:27;;;;;;;3.17;0.50;;;6.30;99.90;;;;;;5021824;28;20496;-84
2023/11/26 13:07:55;;;;;;;0.40;0.30;;;6.20;99.90;;;;;;5022033;28;20420;-84
2023/11/26 13:10:40;;;;;;;1.23;0.40;;;6.10;99.90;;;;;;5021530;28;20411;-84
2023/11/26 13:13:11;;;;;;;0.30;0.30;;;6.10;99.90;;;;;;5021701;28;20434;-84
2023/11/26 13:15:39;;;;;;;1.07;0.50;;;6.10;99.90;;;;;;5021492;28;20408;-84
2023/11/26 13:18:06;;;;;;;0.60;0.40;;;6.10;99.90;;;;;;5021356;28;20490;-84
2023/11/26 13:20:33;;;;;;;0.47;0.47;;;6.10;99.90;;;;;;5021796;28;20455;-83
2023/11/26 13:23:00;;;;;;;0.57;0.57;;;6.10;99.90;;;;;;5022100;28;20455;-83
2023/11/26 13:25:27;;;;;;;0.60;0.47;;;6.10;99.90;;;;;;5022044;28;20447;-83
2023/11/26 13:27:54;;;;;;;0.30;0.30;;;6.00;99.90;;;;;;5021737;28;20447;-83
2023/11/26 13:30:22;;;;;;;0.50;0.50;;;6.10;99.90;;;;;;5022133;28;20947;-83
2023/11/26 13:32:48;;;;;;;0.40;0.40;;;5.90;99.90;;;;;;5021525;28;20456;-84
2023/11/26 13:35:15;;;;;;;1.17;0.50;;;5.80;99.90;;;;;;5307956;22;20489;-78
2023/11/26 13:37:42;;;;;;;0.40;0.40;;;5.80;99.90;;;;;;5036917;28;21067;-78
2023/11/26 13:40:12;;;;;;;0.43;0.40;;;5.90;99.90;;;;;;5036743;28;20450;-78
2023/11/26 13:42:39;;;;;;;0.40;0.30;;;5.90;99.90;;;;;;5037148;28;20452;-78
2023/11/26 13:45:07;;;;;;;0.30;0.30;;;5.90;99.90;;;;;;5036647;28;20835;-78
2023/11/26 13:47:35;;;;;;;1.83;0.40;;;5.90;99.90;;;;;;5036630;28;20806;-78
2023/11/26 13:50:01;;;;;;;0.60;0.60;;;5.90;99.90;;;;;;5036742;28;20447;-78
2023/11/26 13:52:28;;;;;;;0.40;0.40;;;5.90;99.90;;;;;;5037050;28;20457;-78
2023/11/26 13:54:55;;;;;;;1.10;0.60;;;5.90;99.90;;;;;;5036447;28;20470;-78
2023/11/26 13:57:21;;;;;;;0.40;0.40;;;5.90;99.90;;;;;;5035194;28;20489;-78
2023/11/26 13:59:50;;;;;;;0.40;0.40;;;5.90;99.90;;;;;;5036567;28;20795;-78
2023/11/26 14:02:17;;;;;;;1.03;0.73;;;5.90;99.90;;;;;;5036481;28;20451;-78
2023/11/26 14:04:45;;;;;;;1.00;0.70;;;5.80;99.90;;;;;;5036727;28;20462;-78
2023/11/26 14:07:12;;;;;;;0.40;0.30;;;5.80;99.90;;;;;;5037646;28;20451;-78
2023/11/26 14:09:39;;;;;;;0.70;0.50;;;5.80;99.90;;;;;;5036048;28;20898;-78
2023/11/26 14:12:06;;;;;;;0.40;0.40;;;5.70;99.90;;;;;;5036185;28;20446;-79
2023/11/26 14:14:32;;;;;;;0.50;0.50;;;5.60;99.90;;;;;;5035961;28;20466;-79
2023/11/26 14:17:02;;;;;;;0.80;0.50;;;5.60;99.90;;;;;;5038551;28;20454;-79
2023/11/26 14:19:31;;;;;;;1.00;0.50;;;5.50;99.90;;;;;;5035945;28;20454;-78
2023/11/26 14:21:59;;;;;;;0.57;0.50;;;6.70;99.90;;;;;;5035914;28;20450;-78
2023/11/26 14:24:26;;;;;;;1.37;0.80;;;6.20;99.90;;;;;;5035456;28;20983;-79
2023/11/26 14:26:52;;;;;;;0.97;0.50;;;5.00;99.90;;;;;;5035388;28;20453;-79
2023/11/26 14:29:19;;;;;;;0.40;0.30;;;4.80;99.90;;;;;;5036520;28;20451;-79
2023/11/26 14:31:46;;;;;;;0.60;0.60;;;4.50;99.90;;;;;;5035436;28;20946;-79
2023/11/26 14:34:13;;;;;;;0.70;0.50;;;4.50;99.90;;;;;;5035179;28;20465;-79